Time;durP1;ratioP1;P1;durP2;ratioP2;P2;SDS_P1;SDS_P2;PMS_P1;PMS_P2;Temp;Humidity;BMP_temperature;BMP_pressure;BME280_temperature;BME280_humidity;BME280_pressure;Samples;Min_cycle;Max_cycle;Signal;HPM_P1;HPM_P2
2024/04/08 00:01:11;;;;;;;5.53;3.10;;;12.40;99.90;;;12.98;77.23;96937.00;2360829;56;26547;-75
2024/04/08 00:03:37;;;;;;;4.87;3.07;;;12.30;99.90;;;13.00;77.74;96937.00;2360432;56;26159;-76
2024/04/08 00:06:04;;;;;;;8.07;3.70;;;12.40;99.90;;;13.07;78.10;96941.00;2360476;56;26578;-78
2024/04/08 00:08:31;;;;;;;6.90;3.33;;;12.40;99.90;;;12.99;79.20;96930.00;2360962;56;26171;-76
2024/04/08 00:11:04;;;;;;;10.50;3.67;;;12.50;99.90;;;13.13;78.41;96936.00;2360317;56;26199;-77
2024/04/08 00:13:31;;;;;;;6.63;3.57;;;12.50;99.90;;;13.10;78.67;96935.00;2360706;56;26073;-77
2024/04/08 00:15:58;;;;;;;7.00;3.27;;;12.40;99.90;;;13.12;78.84;96932.00;2360970;56;26172;-76
2024/04/08 00:18:25;;;;;;;4.37;2.90;;;12.30;99.90;;;13.08;78.63;96932.00;2360833;56;26700;-76
2024/04/08 00:21:05;;;;;;;6.23;3.60;;;12.30;99.90;;;13.08;78.83;96937.00;2360821;56;26474;-78
2024/04/08 00:23:32;;;;;;;6.17;3.20;;;12.40;99.90;;;13.10;78.94;96940.00;2361332;56;26606;-77
2024/04/08 00:26:03;;;;;;;5.47;3.17;;;12.40;99.90;;;13.07;79.09;96933.00;2360931;56;26641;-78
2024/04/08 00:28:30;;;;;;;6.10;3.13;;;12.30;99.90;;;13.05;78.24;96937.00;2361055;56;26543;-79
2024/04/08 00:31:10;;;;;;;4.57;3.00;;;12.30;99.90;;;12.99;77.69;96930.00;2361236;56;26684;-77
2024/04/08 00:33:37;;;;;;;5.63;3.10;;;12.30;99.90;;;12.95;78.06;96935.00;2361275;56;26120;-78
2024/04/08 00:36:04;;;;;;;6.77;3.63;;;12.20;99.90;;;12.89;78.60;96933.00;2360936;56;26188;-77
2024/04/08 00:38:31;;;;;;;6.47;3.47;;;12.20;99.90;;;12.87;79.12;96935.00;2361316;56;26144;-77
2024/04/08 00:41:02;;;;;;;4.73;3.13;;;12.20;99.90;;;12.94;78.52;96925.00;2361288;56;26062;-77
2024/04/08 00:43:29;;;;;;;6.27;3.80;;;12.20;99.90;;;12.86;78.53;96928.00;2361500;56;26124;-76
2024/04/08 00:45:57;;;;;;;5.67;3.10;;;12.20;99.90;;;12.88;78.75;96926.00;2361003;56;26116;-76
2024/04/08 00:48:23;;;;;;;5.70;3.00;;;12.20;99.90;;;12.85;78.99;96924.00;2360849;56;26677;-76
2024/04/08 00:50:53;;;;;;;7.87;3.40;;;12.20;99.90;;;12.90;78.96;96924.00;2361238;56;26120;-78
2024/04/08 00:53:22;;;;;;;5.80;3.27;;;12.20;99.90;;;12.85;77.91;96927.00;2361181;56;26666;-78
2024/04/08 00:55:53;;;;;;;6.83;3.83;;;12.20;99.90;;;12.87;78.00;96919.00;2360944;56;26144;-77
2024/04/08 00:58:20;;;;;;;6.33;3.40;;;12.20;99.90;;;12.88;78.65;96915.00;2361297;56;26390;-77
2024/04/08 01:00:47;;;;;;;7.53;3.50;;;12.20;99.90;;;12.85;77.84;96916.00;2361170;56;26101;-79
2024/04/08 01:03:14;;;;;;;4.77;3.10;;;12.10;99.90;;;12.72;77.68;96911.00;2361378;56;26081;-77
2024/04/08 01:05:46;;;;;;;5.80;3.27;;;12.10;99.90;;;12.83;77.54;96918.00;2361242;56;26140;-77
2024/04/08 01:08:12;;;;;;;6.60;3.57;;;12.00;99.90;;;12.73;79.08;96913.00;2361029;56;26638;-79
2024/04/08 01:10:39;;;;;;;7.10;3.43;;;11.80;99.90;;;12.54;79.53;96915.00;2361021;56;26113;-79
2024/04/08 01:13:05;;;;;;;6.37;3.13;;;11.70;99.90;;;12.41;78.96;96910.00;2361234;56;26152;-77
2024/04/08 01:15:32;;;;;;;5.27;3.10;;;11.50;99.90;;;12.26;78.88;96910.00;2360946;56;26172;-77
2024/04/08 01:17:59;;;;;;;7.00;3.27;;;11.50;99.90;;;12.13;78.71;96904.00;2361061;56;26156;-76
2024/04/08 01:20:25;;;;;;;6.83;3.30;;;11.50;99.90;;;12.21;79.02;96899.00;2361302;56;26066;-75
2024/04/08 01:22:56;;;;;;;6.30;3.13;;;11.60;99.90;;;12.13;79.87;96906.00;2361139;56;26129;-75
2024/04/08 01:25:23;;;;;;;4.07;2.60;;;11.50;99.90;;;11.99;80.25;96900.00;2361388;56;26216;-76
2024/04/08 01:27:49;;;;;;;6.27;3.00;;;11.50;99.90;;;12.15;79.77;96901.00;2361130;56;26141;-75
2024/04/08 01:30:21;;;;;;;5.60;2.90;;;11.60;99.90;;;12.22;79.74;96896.00;2361411;56;26161;-76
2024/04/08 01:32:49;;;;;;;5.50;3.37;;;11.60;99.90;;;12.25;79.79;96904.00;2361253;56;26188;-78
2024/04/08 01:35:16;;;;;;;5.93;3.10;;;11.70;99.90;;;12.34;79.49;96897.00;2361391;56;26660;-76
2024/04/08 01:37:42;;;;;;;6.30;3.20;;;11.70;99.90;;;12.23;79.03;96897.00;2361126;56;26129;-76
2024/04/08 01:40:09;;;;;;;7.37;3.17;;;11.60;99.90;;;12.24;79.33;96891.00;2361248;56;26185;-78
2024/04/08 01:42:36;;;;;;;8.23;3.50;;;11.30;99.90;;;12.07;79.04;96893.00;2361288;56;26124;-77
2024/04/08 01:45:03;;;;;;;8.87;3.30;;;11.20;99.90;;;11.87;79.68;96886.00;2361538;56;26157;-76
2024/04/08 01:47:29;;;;;;;6.83;2.87;;;11.10;99.90;;;11.74;79.79;96894.00;2361463;56;26129;-75
2024/04/08 01:49:57;;;;;;;6.83;2.73;;;11.10;99.90;;;11.78;80.26;96891.00;2361300;56;26132;-79
2024/04/08 01:52:23;;;;;;;10.47;3.23;;;11.20;99.90;;;11.87;80.63;96888.00;2361777;56;26176;-78
2024/04/08 01:54:50;;;;;;;7.17;3.23;;;11.20;99.90;;;11.89;81.11;96892.00;2361106;56;26208;-78
2024/04/08 01:57:16;;;;;;;7.07;3.57;;;11.20;99.90;;;11.89;81.67;96889.00;2361509;56;26719;-78
2024/04/08 01:59:43;;;;;;;6.13;3.47;;;11.40;99.90;;;11.98;82.12;96890.00;2360810;56;27009;-75
2024/04/08 02:02:10;;;;;;;5.17;3.03;;;11.50;99.90;;;12.00;82.31;96882.00;2361182;56;26925;-77
2024/04/08 02:04:36;;;;;;;7.17;3.17;;;11.50;99.90;;;12.21;81.62;96884.00;2360960;56;26140;-78
2024/04/08 02:07:03;;;;;;;5.40;3.30;;;11.50;99.90;;;12.22;80.18;96880.00;2361147;56;26116;-78
2024/04/08 02:09:30;;;;;;;6.00;2.80;;;11.40;99.90;;;12.10;78.72;96882.00;2361090;56;26077;-78
2024/04/08 02:11:56;;;;;;;4.93;2.77;;;11.30;99.90;;;11.92;78.96;96872.00;2360954;56;26181;-76
2024/04/08 02:14:23;;;;;;;6.57;2.93;;;11.20;99.90;;;11.86;79.46;96877.00;2361086;56;26113;-78
2024/04/08 02:16:50;;;;;;;7.03;2.97;;;11.20;99.90;;;11.88;78.35;96885.00;2361060;56;26093;-76
2024/04/08 02:19:16;;;;;;;7.40;3.10;;;11.20;99.90;;;11.70;78.96;96872.00;2361479;56;26600;-77
2024/04/08 02:21:42;;;;;;;6.73;3.17;;;11.10;99.90;;;11.60;79.59;96880.00;2361105;56;26555;-78
2024/04/08 02:24:09;;;;;;;10.13;3.30;;;11.10;99.90;;;11.68;79.88;96872.00;2361267;56;26614;-77
2024/04/08 02:26:36;;;;;;;5.07;3.43;;;11.10;99.90;;;11.52;79.64;96876.00;2361053;56;26116;-76
2024/04/08 02:29:02;;;;;;;6.97;3.40;;;11.10;99.90;;;11.56;80.47;96871.00;2360689;56;26073;-78
2024/04/08 02:31:29;;;;;;;9.70;3.43;;;11.20;99.90;;;11.70;80.47;96872.00;2361093;56;27055;-79
2024/04/08 02:33:55;;;;;;;6.43;3.00;;;11.20;99.90;;;11.74;80.18;96876.00;2361192;56;26116;-78
2024/04/08 02:36:22;;;;;;;5.30;2.67;;;11.20;99.90;;;11.86;79.69;96865.00;2361279;56;26088;-77
2024/04/08 02:38:48;;;;;;;5.60;3.13;;;11.30;99.90;;;11.79;80.59;96865.00;2360466;56;26069;-76
2024/04/08 02:41:15;;;;;;;4.00;2.73;;;11.30;99.90;;;11.90;78.89;96870.00;2360193;56;26524;-78
2024/04/08 02:43:41;;;;;;;6.13;2.97;;;11.20;99.90;;;11.73;77.58;96875.00;2358972;56;26521;-76
2024/04/08 02:46:08;;;;;;;4.13;2.87;;;10.90;99.90;;;11.55;77.71;96866.00;2358343;56;26117;-77
2024/04/08 02:48:38;;;;;;;5.13;2.77;;;10.80;99.90;;;11.50;78.93;96865.00;2359561;56;26590;-76
2024/04/08 02:51:07;;;;;;;11.57;2.90;;;10.90;99.90;;;11.57;79.36;96862.00;2359620;56;26184;-77
2024/04/08 02:53:34;;;;;;;6.33;3.27;;;11.00;99.90;;;11.47;79.77;96863.00;2359465;56;26713;-76
2024/04/08 02:56:01;;;;;;;6.67;2.90;;;10.90;99.90;;;11.52;80.50;96867.00;2359202;56;26205;-77
2024/04/08 02:58:32;;;;;;;5.13;2.90;;;11.00;99.90;;;11.60;80.21;96865.00;2359145;56;26508;-79
2024/04/08 03:01:09;;;;;;;9.07;3.30;;;10.90;99.90;;;11.51;81.29;96863.00;2359636;56;26189;-76
2024/04/08 03:03:36;;;;;;;5.30;3.27;;;11.00;99.90;;;11.53;81.97;96861.00;2359773;56;27018;-77
2024/04/08 03:06:10;;;;;;;7.20;3.47;;;11.10;99.90;;;11.69;81.40;96855.00;2360140;56;26176;-77
2024/04/08 03:08:39;;;;;;;12.37;3.13;;;11.20;99.90;;;11.70;80.83;96856.00;2359593;56;26188;-78
2024/04/08 03:11:07;;;;;;;6.40;3.10;;;11.10;99.90;;;11.63;81.31;96861.00;2359985;56;26128;-77
2024/04/08 03:13:36;;;;;;;6.17;3.50;;;11.10;99.90;;;11.70;80.57;96862.00;2360635;56;26510;-75
2024/04/08 03:16:03;;;;;;;10.23;3.00;;;11.20;99.90;;;11.72;79.12;96868.00;2360562;56;26125;-78
2024/04/08 03:18:30;;;;;;;4.57;2.47;;;11.00;99.90;;;11.59;78.73;96868.00;2360362;56;26591;-79
2024/04/08 03:21:01;;;;;;;5.00;2.73;;;10.90;99.90;;;11.51;78.76;96867.00;2360697;56;26523;-76
2024/04/08 03:23:29;;;;;;;8.77;2.90;;;10.70;99.90;;;11.45;79.46;96875.00;2360758;56;26085;-78
2024/04/08 03:26:05;;;;;;;5.87;3.13;;;10.80;99.90;;;11.47;80.33;96865.00;2360598;56;26105;-75
2024/04/08 03:28:31;;;;;;;8.90;2.90;;;10.80;99.90;;;11.46;80.24;96866.00;2360677;56;26519;-75
2024/04/08 03:31:03;;;;;;;3.03;2.17;;;10.80;99.90;;;11.51;79.62;96864.00;2359266;56;26958;-75
2024/04/08 03:33:30;;;;;;;4.93;2.90;;;10.70;99.90;;;11.40;79.24;96866.00;2359476;56;26533;-78
2024/04/08 03:35:56;;;;;;;3.97;2.63;;;10.60;99.90;;;11.35;80.01;96862.00;2359793;56;26129;-76
2024/04/08 03:38:23;;;;;;;3.97;2.60;;;10.80;99.90;;;11.35;80.90;96867.00;2359955;56;26180;-75
2024/04/08 03:41:04;;;;;;;6.17;2.97;;;10.80;99.90;;;11.43;82.03;96866.00;2360647;56;26220;-77
2024/04/08 03:43:32;;;;;;;4.70;2.80;;;10.60;99.90;;;11.30;81.10;96867.00;2359684;56;26183;-78
2024/04/08 03:46:00;;;;;;;4.60;2.80;;;10.70;99.90;;;11.32;80.96;96870.00;2359861;56;26180;-77
2024/04/08 03:48:27;;;;;;;6.80;2.90;;;10.80;99.90;;;11.33;81.26;96856.00;2359678;56;26070;-76
2024/04/08 03:50:53;;;;;;;6.60;2.67;;;10.70;99.90;;;11.30;80.22;96861.00;2359635;56;26097;-75
2024/04/08 03:53:20;;;;;;;5.10;2.97;;;10.70;99.90;;;11.25;80.33;96859.00;2359778;56;26133;-77
2024/04/08 03:55:46;;;;;;;5.93;2.97;;;10.60;99.90;;;11.19;79.91;96855.00;2359813;56;26693;-77
2024/04/08 03:58:13;;;;;;;4.33;2.40;;;10.60;99.90;;;11.19;79.47;96855.00;2360110;56;26180;-78
2024/04/08 04:00:40;;;;;;;4.80;2.57;;;10.70;99.90;;;11.10;80.34;96863.00;2359859;56;26787;-77
2024/04/08 04:03:06;;;;;;;4.63;2.80;;;10.60;99.90;;;11.14;81.01;96850.00;2359957;56;26113;-77
2024/04/08 04:05:36;;;;;;;5.70;2.80;;;10.50;99.90;;;11.11;80.82;96850.00;2359528;56;26578;-75
2024/04/08 04:08:04;;;;;;;4.57;2.47;;;10.40;99.90;;;11.07;80.01;96860.00;2358478;56;26138;-78
2024/04/08 04:10:30;;;;;;;7.60;3.10;;;10.30;99.90;;;11.01;79.98;96858.00;2358828;56;26120;-77
2024/04/08 04:12:57;;;;;;;5.77;2.80;;;10.30;99.90;;;10.99;81.19;96855.00;2359010;56;26169;-76
2024/04/08 04:15:23;;;;;;;5.30;2.70;;;10.30;99.90;;;10.99;80.87;96855.00;2358842;56;26157;-75
2024/04/08 04:17:50;;;;;;;6.27;2.80;;;10.30;99.90;;;10.92;80.87;96855.00;2359403;56;26526;-78
2024/04/08 04:20:24;;;;;;;5.03;2.90;;;10.40;99.90;;;10.96;80.98;96854.00;2359789;56;26113;-78
2024/04/08 04:22:50;;;;;;;6.90;2.70;;;10.40;99.90;;;10.87;80.46;96867.00;2359448;56;26530;-76
2024/04/08 04:25:17;;;;;;;5.07;2.87;;;10.30;99.90;;;10.78;80.63;96856.00;2359167;56;26243;-78
2024/04/08 04:27:44;;;;;;;5.03;3.03;;;10.30;99.90;;;10.84;80.51;96853.00;2358662;56;26168;-76
2024/04/08 04:30:11;;;;;;;3.20;2.50;;;10.40;99.90;;;10.93;79.89;96865.00;2358862;56;26769;-75
2024/04/08 04:32:37;;;;;;;4.43;2.57;;;10.30;99.90;;;10.91;79.78;96855.00;2359144;56;26126;-76
2024/04/08 04:35:04;;;;;;;9.77;2.83;;;10.40;99.90;;;11.03;79.86;96858.00;2358684;56;26543;-77
2024/04/08 04:37:31;;;;;;;5.17;2.47;;;10.40;99.90;;;10.93;79.47;96853.00;2357874;56;26089;-75
2024/04/08 04:39:57;;;;;;;5.10;2.83;;;10.40;99.90;;;10.86;79.66;96858.00;2358440;56;26077;-75
2024/04/08 04:42:24;;;;;;;6.80;2.50;;;10.40;99.90;;;10.92;79.75;96863.00;2357867;56;27129;-76
2024/04/08 04:44:51;;;;;;;6.60;3.00;;;10.30;99.90;;;10.92;79.80;96859.00;2357416;56;26192;-77
2024/04/08 04:47:18;;;;;;;3.80;2.60;;;10.30;99.90;;;10.89;80.31;96863.00;2356026;56;26363;-77
2024/04/08 04:49:45;;;;;;;9.03;2.63;;;10.30;99.90;;;10.96;79.33;96862.00;2357601;56;26171;-78
2024/04/08 04:52:13;;;;;;;7.93;2.73;;;10.20;99.90;;;10.86;79.76;96869.00;2357510;56;26155;-75
2024/04/08 04:54:40;;;;;;;6.33;3.33;;;10.20;99.90;;;10.87;79.90;96867.00;2358149;56;26231;-77
2024/04/08 04:57:07;;;;;;;4.13;2.63;;;10.30;99.90;;;10.88;80.78;96864.00;2356020;56;26132;-78
2024/04/08 04:59:33;;;;;;;4.20;2.70;;;10.40;99.90;;;11.02;81.23;96868.00;2355742;56;26595;-75
2024/04/08 05:02:00;;;;;;;5.50;2.83;;;10.40;99.90;;;11.10;79.44;96873.00;2357053;56;27094;-77
2024/04/08 05:04:27;;;;;;;8.90;2.80;;;10.50;99.90;;;11.08;79.82;96873.00;2358403;56;26196;-75
2024/04/08 05:06:53;;;;;;;6.40;3.00;;;10.50;99.90;;;11.21;78.70;96869.00;2356937;56;26244;-77
2024/04/08 05:09:20;;;;;;;5.90;2.97;;;10.50;99.90;;;11.19;78.03;96871.00;2357050;56;26097;-76
2024/04/08 05:11:47;;;;;;;7.13;3.40;;;10.60;99.90;;;11.28;79.06;96880.00;2356265;56;26136;-76
2024/04/08 05:14:13;;;;;;;4.63;2.43;;;10.60;99.90;;;11.34;79.45;96879.00;2355142;56;26579;-76
2024/04/08 05:16:40;;;;;;;5.13;2.90;;;10.60;99.90;;;11.39;78.38;96879.00;2355943;56;26085;-77
2024/04/08 05:19:06;;;;;;;5.17;3.20;;;10.60;99.90;;;11.31;78.99;96874.00;2354775;56;26225;-77
2024/04/08 05:21:33;;;;;;;5.33;3.00;;;10.70;99.90;;;11.48;79.06;96877.00;2355440;56;26558;-76
2024/04/08 05:23:59;;;;;;;5.83;2.83;;;10.90;99.90;;;11.61;79.01;96876.00;2356820;56;26551;-75
2024/04/08 05:26:26;;;;;;;5.03;2.70;;;11.00;99.90;;;11.75;79.04;96885.00;2355836;56;26200;-75
2024/04/08 05:28:53;;;;;;;3.80;2.63;;;11.10;99.90;;;11.75;78.92;96886.00;2355762;56;26073;-77
2024/04/08 05:31:19;;;;;;;5.23;3.03;;;11.10;99.90;;;11.91;78.18;96890.00;2357096;56;26132;-78
2024/04/08 05:33:46;;;;;;;9.40;3.37;;;11.30;99.90;;;12.03;77.68;96890.00;2357311;56;26172;-77
2024/04/08 05:36:12;;;;;;;5.23;2.80;;;11.40;99.90;;;12.09;77.41;96899.00;2357386;56;26168;-75
2024/04/08 05:38:39;;;;;;;4.20;2.67;;;11.40;99.90;;;12.15;77.58;96888.00;2355020;56;26140;-76
2024/04/08 05:41:05;;;;;;;4.77;2.90;;;11.50;99.90;;;12.22;76.98;96891.00;2353138;56;26128;-78
2024/04/08 05:43:32;;;;;;;4.00;2.57;;;11.50;99.90;;;12.27;76.77;96893.00;2355396;56;26626;-76
2024/04/08 05:45:59;;;;;;;5.60;3.17;;;11.60;99.90;;;12.35;77.15;96890.00;2356464;56;26392;-78
2024/04/08 05:48:26;;;;;;;5.77;2.70;;;11.60;99.90;;;12.28;78.51;96896.00;2356921;56;26203;-78
2024/04/08 05:50:52;;;;;;;6.27;3.17;;;11.90;99.90;;;12.55;78.33;96893.00;2356316;56;26168;-78
2024/04/08 05:53:21;;;;;;;5.93;3.17;;;11.90;99.90;;;12.75;78.30;96890.00;2356545;56;26928;-75
2024/04/08 05:55:48;;;;;;;5.50;3.17;;;12.10;99.90;;;12.95;79.03;96895.00;2357041;56;26539;-78
2024/04/08 05:58:14;;;;;;;7.53;3.00;;;12.30;99.90;;;13.03;79.87;96886.00;2356252;56;26522;-77
2024/04/08 06:00:41;;;;;;;6.30;3.00;;;12.40;99.90;;;13.13;79.94;96891.00;2356019;56;26683;-78
2024/04/08 06:03:08;;;;;;;8.03;3.50;;;12.60;99.90;;;13.42;78.97;96878.00;2356655;56;26185;-77
2024/04/08 06:05:34;;;;;;;4.47;3.10;;;12.80;99.90;;;13.72;78.97;96881.00;2356722;56;26816;-79
2024/04/08 06:08:06;;;;;;;8.40;3.00;;;13.00;99.90;;;13.80;78.39;96883.00;2356403;56;26223;-79
2024/04/08 06:10:42;;;;;;;6.15;3.10;;;13.10;99.90;;;13.99;77.75;96884.00;2354668;56;26088;-76
2024/04/08 06:13:09;;;;;;;7.80;3.43;;;13.30;99.90;;;14.27;76.78;96877.00;2354703;56;26177;-77
2024/04/08 06:15:36;;;;;;;11.27;4.10;;;13.50;99.90;;;14.58;75.89;96880.00;2353877;56;26125;-79
2024/04/08 06:18:03;;;;;;;8.85;4.15;;;13.80;99.90;;;14.82;74.62;96871.00;2355556;56;26247;-76
2024/04/08 06:20:29;;;;;;;10.30;4.20;;;14.10;99.90;;;15.13;72.91;96885.00;2354923;56;26882;-77
2024/04/08 06:22:57;;;;;;;8.83;4.17;;;14.40;99.90;;;15.38;71.42;96878.00;2355431;56;26089;-76
2024/04/08 06:25:24;;;;;;;6.90;3.20;;;14.50;99.90;;;15.68;70.10;96873.00;2354921;56;26376;-77
2024/04/08 06:27:51;;;;;;;7.90;4.00;;;14.80;99.90;;;16.05;72.01;96873.00;2353524;56;26080;-77
2024/04/08 06:30:18;;;;;;;12.53;4.03;;;14.90;99.90;;;16.09;72.66;96873.00;2355646;56;26544;-79
2024/04/08 06:32:48;;;;;;;10.20;4.18;;;15.00;99.90;;;16.18;71.35;96872.00;2355361;56;26180;-78
2024/04/08 06:35:17;;;;;;;10.98;4.00;;;15.20;99.90;;;16.49;69.98;96872.00;2352184;56;26169;-78
2024/04/08 06:37:43;;;;;;;10.07;3.70;;;15.60;99.90;;;16.71;68.66;96870.00;2353801;56;26502;-79
2024/04/08 06:40:11;;;;;;;8.85;3.65;;;15.80;99.90;;;16.92;68.09;96876.00;2355024;56;26149;-77
2024/04/08 06:42:37;;;;;;;12.75;4.00;;;16.00;99.90;;;17.34;67.19;96870.00;2355090;56;26117;-79
2024/04/08 06:45:05;;;;;;;6.30;3.62;;;16.30;99.90;;;17.61;67.76;96874.00;2354346;56;26197;-79
2024/04/08 06:47:32;;;;;;;7.25;4.10;;;16.50;99.90;;;17.79;67.99;96868.00;2354308;56;26176;-78
2024/04/08 06:49:59;;;;;;;8.68;3.97;;;16.70;99.90;;;18.02;67.56;96869.00;2355801;56;26848;-78
2024/04/08 06:52:26;;;;;;;6.28;3.55;;;16.80;99.90;;;18.11;66.77;96863.00;2355140;56;26517;-75
2024/04/08 06:54:53;;;;;;;11.50;3.80;;;16.90;99.90;;;18.23;66.16;96857.00;2353220;56;26061;-76
2024/04/08 06:57:19;;;;;;;7.07;3.53;;;17.00;99.90;;;18.41;65.82;96861.00;2354638;56;26546;-76
2024/04/08 06:59:46;;;;;;;5.12;2.80;;;17.20;99.90;;;18.52;65.50;96859.00;2355351;56;26740;-79
2024/04/08 07:02:12;;;;;;;5.20;3.00;;;17.40;99.90;;;18.66;63.27;96866.00;2354634;56;26592;-78
2024/04/08 07:04:39;;;;;;;8.18;3.47;;;17.50;99.90;;;18.93;61.55;96857.00;2356162;56;26528;-76
2024/04/08 07:07:06;;;;;;;9.25;3.75;;;17.70;99.90;;;19.18;60.75;96859.00;2355860;56;26880;-79
2024/04/08 07:09:33;;;;;;;9.57;3.60;;;17.90;99.90;;;19.51;59.94;96851.00;2355857;56;26085;-79
2024/04/08 07:11:59;;;;;;;5.20;3.30;;;18.20;99.90;;;19.67;62.24;96845.00;2355874;56;26127;-79
2024/04/08 07:14:26;;;;;;;4.82;2.92;;;18.40;99.90;;;19.96;62.25;96853.00;2356682;56;26578;-79
2024/04/08 07:16:53;;;;;;;7.43;3.58;;;18.50;99.90;;;19.84;62.05;96855.00;2355262;56;26125;-80
2024/04/08 07:19:19;;;;;;;10.32;3.53;;;18.60;99.90;;;19.93;62.54;96849.00;2355611;56;26121;-79
2024/04/08 07:21:46;;;;;;;14.30;3.33;;;18.70;99.90;;;20.25;61.27;96849.00;2355501;56;26942;-80
2024/04/08 07:24:13;;;;;;;6.28;3.25;;;19.00;99.90;;;20.44;59.33;96845.00;2354517;56;26791;-78
2024/04/08 07:26:39;;;;;;;5.25;3.20;;;18.90;99.90;;;20.31;58.88;96848.00;2354808;56;26538;-77
2024/04/08 07:29:06;;;;;;;6.45;3.20;;;18.90;99.90;;;20.36;59.22;96848.00;2355160;56;26681;-80
2024/04/08 07:31:33;;;;;;;6.82;3.42;;;19.00;99.90;;;20.34;59.21;96848.00;2353420;56;26709;-78
2024/04/08 07:33:59;;;;;;;7.93;3.53;;;19.10;99.90;;;20.54;58.48;96846.00;2355330;56;26108;-80
2024/04/08 07:36:26;;;;;;;5.72;3.35;;;19.20;99.90;;;20.62;59.14;96851.00;2354759;56;26101;-78
2024/04/08 07:38:53;;;;;;;11.20;3.90;;;19.30;99.90;;;20.71;58.03;96847.00;2356106;56;26160;-78
2024/04/08 07:41:29;;;;;;;8.15;3.28;;;19.50;99.90;;;20.90;58.09;96842.00;2356364;56;26193;-78
2024/04/08 07:43:55;;;;;;;11.43;3.60;;;19.60;99.90;;;20.98;57.98;96847.00;2355443;56;26077;-79
2024/04/08 07:46:22;;;;;;;11.90;3.33;;;19.70;99.90;;;21.06;57.44;96847.00;2354685;56;26999;-79
2024/04/08 07:48:48;;;;;;;7.43;3.60;;;19.80;99.90;;;21.18;56.61;96850.00;2355914;56;26125;-78
2024/04/08 07:51:15;;;;;;;7.03;3.22;;;19.80;99.90;;;21.26;56.48;96845.00;2356396;56;26217;-77
2024/04/08 07:53:41;;;;;;;6.20;3.40;;;20.00;99.90;;;21.49;56.46;96832.00;2355712;56;27073;-78
2024/04/08 07:56:08;;;;;;;7.35;3.10;;;20.20;99.90;;;21.87;54.44;96832.00;2354390;56;26371;-77
2024/04/08 07:58:35;;;;;;;5.55;2.87;;;20.50;99.90;;;22.32;51.91;96835.00;2354682;56;26436;-76
2024/04/08 08:01:03;;;;;;;4.28;2.55;;;20.80;98.50;;;22.38;50.23;96839.00;2353828;56;26932;-78
2024/04/08 08:03:30;;;;;;;6.10;3.30;;;20.80;99.20;;;22.40;51.49;96831.00;2353803;56;26483;-77
2024/04/08 08:05:56;;;;;;;4.87;2.83;;;20.90;99.10;;;22.51;51.26;96835.00;2355243;56;26212;-79
2024/04/08 08:08:26;;;;;;;11.77;3.47;;;21.00;99.10;;;22.53;51.79;96833.00;2355783;56;26167;-77
2024/04/08 08:10:57;;;;;;;8.25;3.30;;;21.10;99.50;;;22.48;52.61;96825.00;2355141;56;26977;-77
2024/04/08 08:13:23;;;;;;;7.22;3.55;;;21.20;99.30;;;22.80;51.91;96827.00;2355316;56;26640;-78
2024/04/08 08:15:57;;;;;;;6.43;3.65;;;21.30;98.80;;;22.82;51.37;96827.00;2354191;56;26630;-78
2024/04/08 08:18:24;;;;;;;9.68;3.65;;;21.30;99.10;;;22.81;51.91;96829.00;2354568;56;26247;-78
2024/04/08 08:20:55;;;;;;;5.05;3.40;;;21.50;99.80;;;23.00;52.63;96815.00;2354701;56;26471;-79
2024/04/08 08:23:22;;;;;;;13.45;4.00;;;21.50;99.20;;;23.18;52.09;96823.00;2354878;56;26898;-79
2024/04/08 08:25:49;;;;;;;7.45;3.58;;;21.70;98.70;;;23.23;51.17;96826.00;2354588;56;26088;-78
2024/04/08 08:28:15;;;;;;;15.60;3.62;;;21.80;98.80;;;23.52;51.12;96820.00;2354657;56;26249;-79
2024/04/08 08:30:42;;;;;;;4.65;3.35;;;21.90;99.00;;;23.33;52.03;96818.00;2352661;56;26632;-78
2024/04/08 08:33:09;;;;;;;6.72;3.70;;;21.90;98.40;;;23.49;50.98;96813.00;2353763;56;26166;-77
2024/04/08 08:35:35;;;;;;;9.75;3.50;;;21.80;98.30;;;23.33;50.96;96807.00;2352926;56;26554;-77
2024/04/08 08:38:02;;;;;;;8.25;3.58;;;21.90;98.10;;;23.50;50.33;96806.00;2353581;56;26156;-79
2024/04/08 08:40:32;;;;;;;7.68;3.58;;;22.00;97.80;;;23.62;49.69;96809.00;2354912;56;26226;-79
2024/04/08 08:42:58;;;;;;;5.60;3.25;;;22.20;97.90;;;23.74;50.01;96804.00;2354593;56;26153;-79
2024/04/08 08:45:27;;;;;;;7.80;3.12;;;22.40;97.20;;;24.09;48.54;96801.00;2354628;56;26648;-78
2024/04/08 08:47:54;;;;;;;9.77;3.40;;;22.60;97.00;;;24.21;48.44;96806.00;2353620;56;26612;-77
2024/04/08 08:50:23;;;;;;;5.97;3.05;;;22.70;96.70;;;24.36;47.59;96805.00;2354487;56;26708;-76
2024/04/08 08:52:51;;;;;;;4.43;2.80;;;22.90;96.20;;;24.55;46.93;96798.00;2353689;56;26132;-76
2024/04/08 08:55:22;;;;;;;5.75;2.35;;;22.90;95.80;;;24.51;46.70;96808.00;2355336;56;26224;-79
2024/04/08 08:57:53;;;;;;;5.10;2.42;;;23.00;95.30;;;24.53;46.07;96805.00;2353865;56;26490;-76
2024/04/08 09:00:20;;;;;;;3.33;2.47;;;23.10;94.20;;;24.65;44.46;96791.00;2355220;56;26267;-79
2024/04/08 09:02:48;;;;;;;3.47;2.37;;;23.00;94.50;;;24.53;44.46;96788.00;2355045;56;26073;-79
2024/04/08 09:05:15;;;;;;;4.40;2.58;;;23.00;94.80;;;24.66;45.45;96787.00;2355783;56;26524;-77
2024/04/08 09:07:41;;;;;;;9.40;2.78;;;23.10;94.60;;;24.75;45.21;96791.00;2356928;56;27032;-80
2024/04/08 09:10:08;;;;;;;4.70;2.87;;;23.30;94.50;;;24.83;45.20;96803.00;2354696;56;26129;-80
2024/04/08 09:12:34;;;;;;;7.95;3.10;;;23.50;94.90;;;25.14;45.54;96803.00;2355673;56;26208;-77
2024/04/08 09:15:01;;;;;;;8.55;3.25;;;23.70;94.90;;;25.46;45.43;96801.00;2355415;56;26085;-79
2024/04/08 09:17:28;;;;;;;7.60;3.40;;;23.80;94.80;;;25.33;45.78;96800.00;2355150;56;26093;-78
2024/04/08 09:19:55;;;;;;;4.47;2.83;;;23.90;94.30;;;25.69;44.56;96794.00;2356257;56;26568;-79
2024/04/08 09:22:21;;;;;;;12.02;3.33;;;24.00;94.20;;;25.65;44.56;96790.00;2355949;56;26508;-80
2024/04/08 09:24:48;;;;;;;4.55;3.12;;;24.10;94.70;;;25.66;45.55;96786.00;2354858;56;27170;-79
2024/04/08 09:27:15;;;;;;;4.20;2.90;;;24.20;94.40;;;25.87;44.97;96787.00;2355432;56;26219;-77
2024/04/08 09:29:42;;;;;;;5.65;3.47;;;24.20;94.10;;;25.87;44.46;96789.00;2355725;56;26612;-80
2024/04/08 09:32:09;;;;;;;4.65;3.22;;;24.20;93.80;;;25.87;44.09;96774.00;2354307;56;26645;-80
2024/04/08 09:34:36;;;;;;;7.87;3.42;;;24.30;94.30;;;26.05;44.79;96774.00;2354855;56;26133;-79
2024/04/08 09:37:08;;;;;;;7.62;3.30;;;24.30;94.30;;;25.93;44.98;96763.00;2355841;56;26125;-78
2024/04/08 09:39:40;;;;;;;6.72;2.90;;;24.30;94.10;;;26.05;44.21;96760.00;2355272;56;27041;-79
2024/04/08 09:42:19;;;;;;;8.38;3.53;;;24.40;94.00;;;26.19;44.20;96765.00;2355560;56;26149;-79
2024/04/08 09:44:48;;;;;;;7.40;3.40;;;24.50;93.70;;;26.21;43.97;96763.00;2355719;56;26188;-76
2024/04/08 09:47:17;;;;;;;6.28;3.15;;;24.50;93.10;;;26.09;43.25;96759.00;2352276;56;26513;-77
2024/04/08 09:49:48;;;;;;;6.37;3.50;;;24.50;92.60;;;26.10;42.56;96752.00;2353739;56;26240;-79
2024/04/08 09:52:19;;;;;;;7.32;3.03;;;24.50;93.10;;;26.06;43.54;96756.00;2354548;56;26053;-78
2024/04/08 09:54:46;;;;;;;6.47;3.35;;;24.50;93.00;;;26.02;43.56;96758.00;2354583;56;26729;-78
2024/04/08 09:57:16;;;;;;;6.28;2.97;;;24.50;93.10;;;26.13;43.43;96751.00;2355013;56;26653;-77
2024/04/08 09:59:49;;;;;;;9.07;3.35;;;24.40;93.30;;;25.94;44.15;96754.00;2356032;56;27107;-76
2024/04/08 10:02:25;;;;;;;4.60;2.80;;;24.40;92.90;;;26.10;43.13;96751.00;2353643;56;26902;-80
2024/04/08 10:04:56;;;;;;;4.60;2.60;;;24.50;92.20;;;26.10;42.48;96743.00;2355529;56;26481;-79
2024/04/08 10:07:24;;;;;;;4.72;2.75;;;24.50;91.60;;;26.24;41.29;96739.00;2355004;56;26226;-77
2024/04/08 10:09:52;;;;;;;4.03;2.70;;;24.30;91.30;;;25.57;41.65;96740.00;2355545;56;26211;-77
2024/04/08 10:12:33;;;;;;;5.75;2.70;;;24.20;91.60;;;25.52;42.17;96732.00;2355230;56;26133;-79
2024/04/08 10:15:19;;;;;;;4.75;2.60;;;24.10;91.40;;;25.35;42.07;96729.00;2355496;56;26499;-77
2024/04/08 10:17:52;;;;;;;4.93;2.58;;;24.10;91.00;;;25.41;41.40;96726.00;2356771;56;26836;-79
2024/04/08 10:20:20;;;;;;;4.87;2.42;;;24.20;90.20;;;25.81;39.81;96728.00;2356083;56;26598;-78